createdAt,value
2024-02-27T00:01:00.778Z,88.48
2024-02-27T00:06:23.053Z,86.98
2024-02-27T00:11:26.887Z,86.63
2024-02-27T00:16:29.141Z,86.14
2024-02-27T00:21:31.206Z,85.24
2024-02-27T00:26:34.778Z,85.21
2024-02-27T00:31:36.907Z,85.69
2024-02-27T00:37:43.288Z,81.75
2024-02-27T00:43:36.640Z,82.40
2024-02-27T00:48:40.215Z,83.52
2024-02-27T00:53:42.835Z,83.10
2024-02-27T00:58:45.052Z,85.13
2024-02-27T01:03:48.714Z,85.45
2024-02-27T01:08:50.812Z,85.62
2024-02-27T01:13:52.874Z,86.42
2024-02-27T01:18:56.405Z,86.91
2024-02-27T01:23:59.468Z,87.17
2024-02-27T01:29:01.693Z,84.35
2024-02-27T01:34:05.497Z,83.36
2024-02-27T01:39:09.316Z,83.53
2024-02-27T01:44:11.447Z,84.79
2024-02-27T01:49:15.946Z,81.93
2024-02-27T01:54:20.885Z,83.23
2024-02-27T01:59:23.302Z,83.22
2024-02-27T02:04:28.137Z,83.42
2024-02-27T02:09:30.629Z,83.23
2024-02-27T02:14:32.933Z,84.68
2024-02-27T02:19:36.335Z,84.11
2024-02-27T02:24:40.298Z,84.79
2024-02-27T02:29:42.361Z,84.94
2024-02-27T02:34:44.482Z,86.44
2024-02-27T02:39:48.067Z,82.73
2024-02-27T02:44:50.136Z,78.97
2024-02-27T02:49:52.382Z,77.85
2024-02-27T02:54:56.008Z,77.86
2024-02-27T02:59:58.278Z,78.65
2024-02-27T03:05:00.377Z,78.66
2024-02-27T03:10:04.707Z,78.28
2024-02-27T03:15:07.434Z,78.33
2024-02-27T03:20:11.466Z,77.29
2024-02-27T03:25:15.124Z,78.18
2024-02-27T03:30:19.938Z,79.56
2024-02-27T03:35:23.183Z,79.42
2024-02-27T03:40:26.567Z,80.33
2024-02-27T03:45:28.647Z,76.69
2024-02-27T03:50:30.737Z,77.43
2024-02-27T03:55:34.400Z,79.71
2024-02-27T04:00:36.753Z,79.52
2024-02-27T04:05:38.992Z,81.68
2024-02-27T04:10:42.620Z,83.36
2024-02-27T04:15:47.701Z,82.93
2024-02-27T04:20:50.310Z,84.77
2024-02-27T04:25:53.869Z,85.97
2024-02-27T04:30:56.065Z,86.52
2024-02-27T04:35:58.212Z,86.16
2024-02-27T04:41:01.697Z,86.71
2024-02-27T04:46:03.898Z,87.02
2024-02-27T04:51:07.605Z,88.02
2024-02-27T04:56:11.114Z,88.19
2024-02-27T05:01:14.967Z,89.75
2024-02-27T05:06:17.253Z,91.46
2024-02-27T05:11:20.654Z,92.60
2024-02-27T05:16:22.919Z,93.40
2024-02-27T05:21:25.016Z,94.59
2024-02-27T05:26:28.483Z,95.89
2024-02-27T05:31:31.831Z,96.49
2024-02-27T05:36:34.476Z,97.00
2024-02-27T05:41:37.824Z,96.55
2024-02-27T05:46:40.029Z,96.80
2024-02-27T05:51:43.024Z,96.63
2024-02-27T05:56:46.813Z,97.34
2024-02-27T06:01:48.867Z,96.95
2024-02-27T06:06:51.103Z,96.43
2024-02-27T06:11:54.667Z,96.62
2024-02-27T06:16:57.164Z,96.09
2024-02-27T06:22:11.643Z,95.40
2024-02-27T06:27:15.313Z,94.97
2024-02-27T06:32:17.556Z,94.42
2024-02-27T06:37:20.241Z,93.30
2024-02-27T06:42:24.683Z,92.30
2024-02-27T06:47:28.204Z,92.88
2024-02-27T06:52:30.297Z,91.84
2024-02-27T06:57:33.914Z,89.37
2024-02-27T07:02:36.093Z,88.64
2024-02-27T07:07:38.246Z,89.35
2024-02-27T07:12:43.353Z,88.53
2024-02-27T07:17:45.774Z,88.73
2024-02-27T07:22:49.655Z,88.36
2024-02-27T07:27:53.408Z,87.75
2024-02-27T07:32:55.840Z,87.50
2024-02-27T07:37:58.077Z,86.62
2024-02-27T07:43:02.504Z,84.75
2024-02-27T07:48:05.686Z,84.32
2024-02-27T07:53:07.962Z,83.61
2024-02-27T07:58:11.702Z,83.27
2024-02-27T08:03:14.009Z,80.52
2024-02-27T08:08:17.290Z,78.77
2024-02-27T08:13:23.860Z,77.80
2024-02-27T08:18:27.025Z,77.91
2024-02-27T08:23:30.197Z,79.06
2024-02-27T08:28:33.651Z,79.92
2024-02-27T08:33:36.023Z,81.46
2024-02-27T08:38:38.134Z,81.32
2024-02-27T08:43:44.097Z,81.70
2024-02-27T08:48:46.837Z,80.24
2024-02-27T08:53:49.329Z,80.62
2024-02-27T08:58:52.688Z,79.07
2024-02-27T09:03:54.832Z,78.40
2024-02-27T09:08:57.161Z,77.57
2024-02-27T09:14:00.740Z,78.46
2024-02-27T09:19:03.167Z,76.94
2024-02-27T09:24:05.545Z,74.58
2024-02-27T09:29:09.043Z,72.33
2024-02-27T09:34:11.326Z,71.28
2024-02-27T09:39:13.366Z,70.90
2024-02-27T09:44:17.074Z,70.32
2024-02-27T09:49:32.633Z,68.90
2024-02-27T09:54:39.542Z,67.33
2024-02-27T09:59:43.217Z,66.15
2024-02-27T10:04:46.205Z,64.83
2024-02-27T10:09:48.405Z,64.02
2024-02-27T10:14:51.760Z,63.48
2024-02-27T10:19:54.483Z,64.88
2024-02-27T10:25:05.785Z,62.82
2024-02-27T10:30:11.657Z,60.24
2024-02-27T10:35:15.756Z,61.60
2024-02-27T10:40:20.099Z,59.15
2024-02-27T10:45:24.627Z,59.94
2024-02-27T10:50:27.831Z,56.25
2024-02-27T10:55:30.689Z,55.21
2024-02-27T11:00:34.637Z,58.67
2024-02-27T11:05:38.846Z,56.40
2024-02-27T11:10:41.166Z,58.60
2024-02-27T11:15:47.947Z,55.55
2024-02-27T11:20:50.855Z,56.58
2024-02-27T11:25:53.552Z,55.20
2024-02-27T11:30:57.403Z,53.62
2024-02-27T11:36:01.202Z,54.47
2024-02-27T11:41:05.140Z,55.81
2024-02-27T11:46:36.934Z,54.70
2024-02-27T11:51:39.196Z,53.91
2024-02-27T11:56:44.817Z,50.35
2024-02-27T12:02:02.269Z,51.18
2024-02-27T12:07:04.786Z,50.92
2024-02-27T12:12:07.620Z,52.76
2024-02-27T12:17:11.042Z,50.89
2024-02-27T12:22:13.461Z,51.28
2024-02-27T12:27:15.951Z,50.16
2024-02-27T12:32:20.085Z,49.68
2024-02-27T12:37:22.171Z,49.26
2024-02-27T12:42:24.604Z,51.07
2024-02-27T12:47:28.232Z,50.79
2024-02-27T12:52:30.610Z,51.40
2024-02-27T12:57:32.972Z,50.94
2024-02-27T13:02:36.473Z,51.87
2024-02-27T13:07:40.204Z,50.92
2024-02-27T13:12:42.448Z,49.83
2024-02-27T13:17:46.142Z,50.64
2024-02-27T13:22:50.525Z,49.77
2024-02-27T13:27:53.876Z,49.45
2024-02-27T13:32:57.768Z,48.44
2024-02-27T13:37:59.927Z,48.90
2024-02-27T13:43:03.496Z,48.62
2024-02-27T13:48:10.465Z,49.63
2024-02-27T13:53:14.397Z,50.58
2024-02-27T13:58:16.614Z,51.46
2024-02-27T14:03:20.209Z,51.69
2024-02-27T14:08:22.536Z,52.84
2024-02-27T14:13:24.646Z,52.37
2024-02-27T14:18:28.316Z,52.93
2024-02-27T14:23:30.679Z,52.64
2024-02-27T14:28:32.803Z,52.45
2024-02-27T14:33:36.287Z,52.41
2024-02-27T14:38:38.577Z,51.85
2024-02-27T14:43:40.710Z,52.92
2024-02-27T14:48:44.241Z,53.58
2024-02-27T14:53:46.361Z,54.08
2024-02-27T14:58:48.385Z,53.75
2024-02-27T15:03:52.022Z,54.20
2024-02-27T15:08:54.178Z,54.46
2024-02-27T15:13:56.336Z,54.65
2024-02-27T15:18:59.954Z,55.32
2024-02-27T15:24:02.425Z,55.65
2024-02-27T15:29:04.537Z,56.59
2024-02-27T15:34:08.194Z,57.52
2024-02-27T15:39:10.354Z,57.83
2024-02-27T15:44:17.624Z,58.07
2024-02-27T15:49:25.056Z,58.09
2024-02-27T15:54:27.351Z,59.21
2024-02-27T15:59:29.418Z,59.93
2024-02-27T16:04:41.515Z,60.43
2024-02-27T16:09:43.823Z,61.15
2024-02-27T16:14:45.832Z,61.59
2024-02-27T16:19:50.189Z,62.50
2024-02-27T16:24:52.589Z,64.60
2024-02-27T16:29:54.705Z,65.48
2024-02-27T16:34:58.278Z,64.81
2024-02-27T16:40:00.621Z,64.32
2024-02-27T16:45:02.797Z,65.21
2024-02-27T16:50:07.257Z,64.74
2024-02-27T16:55:11.690Z,66.20
2024-02-27T17:00:14.498Z,68.05
2024-02-27T17:05:17.989Z,69.63
2024-02-27T17:10:20.165Z,72.08
2024-02-27T17:15:24.115Z,73.20
2024-02-27T17:20:27.590Z,73.92
2024-02-27T17:25:29.675Z,75.17
2024-02-27T17:30:31.780Z,76.46
2024-02-27T17:35:35.861Z,77.79
2024-02-27T17:40:37.972Z,78.23
2024-02-27T17:45:40.157Z,78.71
2024-02-27T17:50:44.033Z,79.47
2024-02-27T17:55:46.527Z,80.15
2024-02-27T18:00:48.958Z,81.08
2024-02-27T18:05:53.905Z,80.01
2024-02-27T18:10:56.106Z,80.90
2024-02-27T18:15:58.774Z,81.03
2024-02-27T18:21:02.983Z,81.27
2024-02-27T18:26:05.522Z,81.74
2024-02-27T18:31:08.757Z,81.73
2024-02-27T18:36:12.392Z,82.29
2024-02-27T18:41:14.679Z,82.69
2024-02-27T18:46:17.731Z,83.15
2024-02-27T18:51:21.361Z,83.56
2024-02-27T18:56:23.432Z,83.84
2024-02-27T19:01:25.698Z,83.59
2024-02-27T19:06:29.397Z,83.68
2024-02-27T19:11:31.672Z,84.17
2024-02-27T19:16:33.926Z,83.41
2024-02-27T19:21:37.482Z,83.88
2024-02-27T19:26:39.677Z,83.15
2024-02-27T19:31:41.889Z,83.75
2024-02-27T19:36:45.585Z,84.40
2024-02-27T19:41:47.875Z,85.78
2024-02-27T19:46:50.086Z,86.15
2024-02-27T19:51:53.620Z,86.12
2024-02-27T19:56:55.897Z,86.57
2024-02-27T20:01:58.617Z,87.01
2024-02-27T20:07:01.939Z,86.85
2024-02-27T20:12:04.387Z,87.43
2024-02-27T20:17:06.671Z,88.03
2024-02-27T20:22:10.217Z,87.81
2024-02-27T20:27:12.563Z,88.18
2024-02-27T20:32:14.717Z,87.12
2024-02-27T20:37:18.208Z,85.78
2024-02-27T20:42:20.324Z,86.19
2024-02-27T20:47:22.493Z,86.30
2024-02-27T20:52:25.952Z,86.24
2024-02-27T20:57:28.145Z,86.28
2024-02-27T21:02:32.548Z,85.29
2024-02-27T21:07:36.509Z,85.40
2024-02-27T21:12:41.879Z,85.82
2024-02-27T21:17:44.115Z,85.04
2024-02-27T21:22:47.610Z,85.79
2024-02-27T21:27:53.886Z,85.01
2024-02-27T21:32:56.164Z,85.15
2024-02-27T21:37:59.673Z,85.37
2024-02-27T21:43:02.044Z,85.66
2024-02-27T21:48:04.861Z,85.81
2024-02-27T21:53:08.441Z,84.16
2024-02-27T21:58:10.823Z,78.04
2024-02-27T22:03:13.361Z,79.68
2024-02-27T22:08:17.068Z,76.51
2024-02-27T22:13:19.165Z,76.20
2024-02-27T22:18:21.413Z,76.62
2024-02-27T22:23:24.930Z,77.95
2024-02-27T22:28:26.960Z,79.06
2024-02-27T22:33:29.230Z,78.59
2024-02-27T22:38:32.825Z,78.24
2024-02-27T22:43:34.856Z,78.79
2024-02-27T22:48:37.039Z,79.84
2024-02-27T22:53:40.693Z,80.55
2024-02-27T22:58:42.782Z,80.55
2024-02-27T23:03:44.913Z,82.06
2024-02-27T23:08:48.493Z,82.81
2024-02-27T23:13:50.579Z,83.11
2024-02-27T23:18:52.670Z,83.96
2024-02-27T23:23:56.612Z,84.84
2024-02-27T23:28:58.725Z,86.33
2024-02-27T23:34:01.005Z,86.75
2024-02-27T23:39:07.508Z,87.88
2024-02-27T23:44:09.664Z,88.39
2024-02-27T23:49:11.691Z,89.12
2024-02-27T23:54:15.101Z,89.96
2024-02-27T23:59:19.040Z,90.58
